La Salle, Texas
Current Conditions -  °F | °C
As of 11:55 AM on Thursday 30 Oct 2014 (Local Time) from KPKV Reporting Station
Broken Clouds Broken Clouds  
Wind Chill: 75°   Ceiling: 2200
Heat Index: 75°   Visibility: 10mi
Dew Point: 66°   Wind: 8mph
Humidity: 75%   Direction: 60°ENE
Pressure: 30.12"   Gusts: NA
Location:  28.79°N, 96.67°W
Report Text: KPKV 301655Z AUTO 06007KT 10SM BKN022 BKN060 24/19 A3012 RMK AO2 T02370190
Loading
Personal Weather Stations






























Interactive Weather Map
Tropical Storm Tracking
New forecast layout! Learn more

10-Day Weather Forecast

Advertisements
Track Severe Weather on mobile